createdAt,value
2022-10-22T00:03:29.921Z,16.11795
2022-10-22T00:08:31.597Z,14.04395
2022-10-22T00:13:33.456Z,12.7995
2022-10-22T00:18:35.204Z,11.67365
2022-10-22T00:23:36.786Z,8.296
2022-10-22T00:28:38.439Z,6.1035
2022-10-22T00:33:40.077Z,5.33315
2022-10-22T00:38:41.658Z,4.59225
2022-10-22T00:43:43.345Z,2.01475
2022-10-22T00:48:45.014Z,3.67
2022-10-22T00:53:46.742Z,0.8296
2022-10-22T00:58:48.395Z,0.47405
2022-10-22T01:03:49.978Z,0
2022-10-22T01:08:51.600Z,0
2022-10-22T01:13:53.199Z,0
2022-10-22T01:18:54.862Z,0
2022-10-22T01:23:56.467Z,0
2022-10-22T01:28:58.143Z,0
2022-10-22T01:33:59.887Z,0
2022-10-22T01:39:01.562Z,0
2022-10-22T01:44:03.232Z,0
2022-10-22T01:49:05.040Z,0
2022-10-22T01:54:06.624Z,0
2022-10-22T01:59:08.281Z,0
2022-10-22T02:04:09.881Z,0
2022-10-22T02:09:11.542Z,0
2022-10-22T02:14:13.255Z,0
2022-10-22T02:19:14.871Z,0
2022-10-22T02:24:16.536Z,0
2022-10-22T02:29:18.190Z,0
2022-10-22T02:34:19.788Z,0
2022-10-22T02:39:21.542Z,0
2022-10-22T02:44:23.204Z,0
2022-10-22T02:49:24.848Z,0
2022-10-22T02:54:26.622Z,0
2022-10-22T02:59:28.343Z,0
2022-10-22T03:04:29.966Z,0
2022-10-22T03:09:31.572Z,0
2022-10-22T03:14:33.198Z,0
2022-10-22T03:19:34.797Z,0
2022-10-22T03:24:36.377Z,0
2022-10-22T03:29:38.019Z,0
2022-10-22T03:34:39.670Z,0
2022-10-22T03:39:41.255Z,0
2022-10-22T03:44:42.895Z,0
2022-10-22T03:49:44.508Z,0
2022-10-22T03:54:46.116Z,0
2022-10-22T03:59:47.858Z,0
2022-10-22T04:04:49.527Z,0
2022-10-22T04:09:51.166Z,0
2022-10-22T04:14:52.857Z,0
2022-10-22T04:19:54.477Z,0
2022-10-22T04:24:56.155Z,0
2022-10-22T04:29:57.931Z,0
2022-10-22T04:34:59.536Z,0
2022-10-22T04:40:01.510Z,0
2022-10-22T04:45:03.186Z,0
2022-10-22T04:50:04.821Z,0
2022-10-22T04:55:06.463Z,0
2022-10-22T05:00:08.175Z,0
2022-10-22T05:05:10.694Z,0
2022-10-22T05:10:12.472Z,0
2022-10-22T05:15:14.081Z,0
2022-10-22T05:20:15.770Z,0
2022-10-22T05:25:17.376Z,0
2022-10-22T05:30:19.010Z,0
2022-10-22T05:35:20.591Z,0
2022-10-22T05:40:30.520Z,0
2022-10-22T05:45:32.840Z,0
2022-10-22T05:50:34.485Z,0
2022-10-22T05:55:36.130Z,0
2022-10-22T06:00:37.749Z,0
2022-10-22T06:05:39.359Z,0
2022-10-22T06:10:40.960Z,0
2022-10-22T06:15:42.620Z,0
2022-10-22T06:20:44.275Z,0
2022-10-22T06:25:45.865Z,0
2022-10-22T06:30:47.531Z,0
2022-10-22T06:35:49.131Z,0
2022-10-22T06:40:50.690Z,0
2022-10-22T06:45:52.526Z,0
2022-10-22T06:50:54.149Z,0
2022-10-22T06:55:55.786Z,0
2022-10-22T07:00:57.545Z,0
2022-10-22T07:05:59.424Z,0
2022-10-22T07:11:01.024Z,0
2022-10-22T07:16:02.735Z,0
2022-10-22T07:21:04.387Z,0
2022-10-22T07:26:06.008Z,0
2022-10-22T07:31:07.619Z,0
2022-10-22T07:36:09.243Z,0
2022-10-22T07:41:10.833Z,0
2022-10-22T07:46:12.529Z,0
2022-10-22T07:51:14.161Z,0
2022-10-22T07:56:15.836Z,0
2022-10-22T08:01:17.490Z,0
2022-10-22T08:06:19.176Z,0
2022-10-22T08:11:20.828Z,0
2022-10-22T08:16:22.774Z,0
2022-10-22T08:21:24.394Z,0
2022-10-22T08:26:26.069Z,0
2022-10-22T08:31:27.730Z,0
2022-10-22T08:36:29.322Z,0
2022-10-22T08:41:30.972Z,0
2022-10-22T08:46:32.720Z,0
2022-10-22T08:51:34.352Z,0
2022-10-22T08:56:36.000Z,0
2022-10-22T09:01:37.630Z,0
2022-10-22T09:06:39.232Z,0
2022-10-22T09:11:40.862Z,0
2022-10-22T09:16:42.500Z,0
2022-10-22T09:21:44.158Z,0
2022-10-22T09:26:45.784Z,0
2022-10-22T09:31:47.407Z,0
2022-10-22T09:36:49.639Z,0
2022-10-22T09:41:51.339Z,0
2022-10-22T09:46:52.921Z,0
2022-10-22T09:51:54.560Z,0
2022-10-22T09:56:56.319Z,0
2022-10-22T10:02:08.379Z,0
2022-10-22T10:07:21.554Z,0
2022-10-22T10:12:23.444Z,0
2022-10-22T10:17:25.148Z,0
2022-10-22T10:22:26.775Z,0
2022-10-22T10:27:28.479Z,0
2022-10-22T10:32:30.304Z,0
2022-10-22T10:37:32.041Z,0
2022-10-22T10:42:33.647Z,0
2022-10-22T10:47:35.263Z,0
2022-10-22T10:52:36.878Z,0
2022-10-22T10:57:38.829Z,0
2022-10-22T11:02:40.591Z,0
2022-10-22T11:07:42.221Z,0
2022-10-22T11:12:44.229Z,0
2022-10-22T11:17:46.250Z,0
2022-10-22T11:23:13.593Z,0
2022-10-22T11:28:19.850Z,0
2022-10-22T11:33:21.509Z,0
2022-10-22T11:38:23.124Z,0
2022-10-22T11:43:24.749Z,0
2022-10-22T11:48:26.575Z,0
2022-10-22T11:53:28.178Z,0
2022-10-22T11:58:29.784Z,0
2022-10-22T12:03:31.413Z,0
2022-10-22T12:08:33.087Z,0
2022-10-22T12:13:34.731Z,0
2022-10-22T12:18:36.413Z,0
2022-10-22T12:23:38.061Z,0
2022-10-22T12:28:39.693Z,0
2022-10-22T12:33:41.444Z,0
2022-10-22T12:38:43.060Z,0
2022-10-22T12:43:44.685Z,0
2022-10-22T12:48:46.392Z,0
2022-10-22T12:53:47.971Z,0
2022-10-22T12:58:49.803Z,0
2022-10-22T13:03:51.403Z,0
2022-10-22T13:08:53.030Z,0
2022-10-22T13:13:54.674Z,0
2022-10-22T13:18:56.294Z,0
2022-10-22T13:23:57.930Z,0
2022-10-22T13:28:59.526Z,0
2022-10-22T13:34:03.564Z,0
2022-10-22T13:39:08.553Z,0
2022-10-22T13:44:10.154Z,0
2022-10-22T13:49:11.707Z,0
2022-10-22T13:54:13.303Z,0
2022-10-22T13:59:17.260Z,0
2022-10-22T14:04:21.928Z,0
2022-10-22T14:09:23.553Z,0.47405
2022-10-22T14:14:25.216Z,1.53075
2022-10-22T14:19:26.806Z,1.6592
2022-10-22T14:24:28.490Z,4.22335
2022-10-22T14:29:30.091Z,7.7089
2022-10-22T14:34:31.708Z,9.60855
2022-10-22T14:39:33.319Z,18.53445
2022-10-22T14:44:34.974Z,18.1104
2022-10-22T14:49:36.582Z,32.2922
2022-10-22T14:54:38.389Z,36.27595
2022-10-22T14:59:40.043Z,43.61595
2022-10-22T15:04:41.672Z,43.3212
2022-10-22T15:09:43.291Z,50.9008
2022-10-22T15:14:44.986Z,50.34745
2022-10-22T15:19:46.581Z,54.88455
2022-10-22T15:24:48.251Z,64.78785
2022-10-22T15:29:49.986Z,66.6875
2022-10-22T15:34:51.673Z,73.6586
2022-10-22T15:39:53.332Z,71.29875
2022-10-22T15:44:55.662Z,82.06915
2022-10-22T15:49:57.331Z,89.55745
2022-10-22T15:54:59.094Z,81.14875
2022-10-22T16:00:00.749Z,98.76095
2022-10-22T16:05:02.492Z,103.2239
2022-10-22T16:10:04.095Z,103.0946
2022-10-22T16:15:05.706Z,108.05575
2022-10-22T16:20:07.406Z,104.27545
2022-10-22T16:25:09.061Z,116.04225
2022-10-22T16:30:10.662Z,112.98075
2022-10-22T16:35:12.277Z,117.9229
2022-10-22T16:40:13.872Z,113.60825
2022-10-22T16:50:17.159Z,128.0505
2022-10-22T16:55:18.905Z,148.973
2022-10-22T17:00:20.480Z,172.08335
2022-10-22T17:05:22.200Z,210.30415
2022-10-22T17:15:25.877Z,248.88065
2022-10-22T17:20:27.497Z,284.67205
2022-10-22T17:25:29.190Z,267.6058
2022-10-22T17:30:31.075Z,256.99875
2022-10-22T17:35:32.755Z,254.21375
2022-10-22T17:40:34.392Z,275.78345
2022-10-22T17:45:36.028Z,305.5306
2022-10-22T17:50:37.682Z,322.35975
2022-10-22T17:55:39.292Z,328.5224
2022-10-22T18:00:41.145Z,400.8756
2022-10-22T18:05:42.904Z,444.1332
2022-10-22T18:10:44.576Z,256.4658
2022-10-22T18:15:46.182Z,286.23495
2022-10-22T18:20:47.804Z,246.91465
2022-10-22T18:25:49.412Z,280.26025
2022-10-22T18:30:51.054Z,291.36845
2022-10-22T18:35:52.698Z,263.93225
2022-10-22T18:40:54.834Z,601.34165
2022-10-22T18:45:56.637Z,658.0504
2022-10-22T18:50:58.215Z,325.97435
2022-10-22T18:55:59.858Z,329.5297
2022-10-22T19:01:01.780Z,432.6368
2022-10-22T19:06:03.652Z,317.0856
2022-10-22T19:11:05.295Z,358.92115
2022-10-22T19:16:06.985Z,350.9213
2022-10-22T19:21:08.641Z,292.8493
2022-10-22T19:26:10.281Z,291.4271
2022-10-22T19:31:11.940Z,316.6708
2022-10-22T19:36:13.673Z,264.7021
2022-10-22T19:41:15.405Z,233.355
2022-10-22T19:46:17.031Z,216.05195
2022-10-22T19:51:18.685Z,232.4069
2022-10-22T19:56:20.338Z,230.3329
2022-10-22T20:01:21.964Z,216.1111
2022-10-22T20:06:23.600Z,200.882
2022-10-22T20:11:25.220Z,193.83035
2022-10-22T20:16:26.833Z,191.28235
2022-10-22T20:21:28.454Z,188.91205
2022-10-22T20:26:30.176Z,174.51255
2022-10-22T20:31:31.936Z,169.53495
2022-10-22T20:36:33.577Z,170.48305
2022-10-22T20:41:35.293Z,175.81615
2022-10-22T20:46:37.012Z,184.8233
2022-10-22T20:51:38.603Z,201.29675
2022-10-22T20:56:40.198Z,189.56385
2022-10-22T21:01:41.827Z,191.93415
2022-10-22T21:06:43.778Z,193.53405
2022-10-22T21:11:45.440Z,196.02285
2022-10-22T21:16:47.123Z,207.45955
2022-10-22T21:21:48.704Z,216.82215
2022-10-22T21:26:50.394Z,203.54855
2022-10-22T21:31:52.166Z,202.54115
2022-10-22T21:36:53.790Z,190.80825
2022-10-22T21:41:55.371Z,189.5046
2022-10-22T21:46:56.969Z,195.84515
2022-10-22T21:51:58.816Z,185.1196
2022-10-22T21:57:00.576Z,178.54205
2022-10-22T22:02:05.039Z,183.2826
2022-10-22T22:07:08.020Z,193.23775
2022-10-22T22:12:09.620Z,199.81525
2022-10-22T22:17:11.515Z,201.0004
2022-10-22T22:22:13.179Z,198.63005
2022-10-22T22:27:14.842Z,190.63035
2022-10-22T22:32:16.587Z,170.3644
2022-10-22T22:37:18.335Z,150.454
2022-10-22T22:42:19.943Z,125.6845
2022-10-22T22:47:21.715Z,100.02615
2022-10-22T22:52:23.463Z,81.1231
2022-10-22T22:57:25.105Z,70.8716
2022-10-22T23:02:26.807Z,65.894
2022-10-22T23:07:28.418Z,65.5385
2022-10-22T23:12:30.036Z,61.2127
2022-10-22T23:17:31.638Z,55.76105
2022-10-22T23:22:33.320Z,52.7982
2022-10-22T23:27:35.035Z,49.1835
2022-10-22T23:32:36.736Z,44.85775
2022-10-22T23:37:38.528Z,37.6284
2022-10-22T23:42:40.332Z,31.7619
2022-10-22T23:47:42.314Z,28.50275
2022-10-22T23:52:44.573Z,25.59915
2022-10-22T23:57:46.354Z,22.10295
